Time;durP1;ratioP1;P1;durP2;ratioP2;P2;SDS_P1;SDS_P2;PMS_P1;PMS_P2;Temp;Humidity;BMP_temperature;BMP_pressure;BME280_temperature;BME280_humidity;BME280_pressure;Samples;Min_cycle;Max_cycle;Signal;HPM_P1;HPM_P2
2023/05/03 00:01:51;;;;;;;10.67;3.97;;;;;;;41.61;35.64;101104.63;5004390;28;20461;-86
2023/05/03 00:04:22;;;;;;;17.00;4.37;;;;;;;41.69;35.59;101092.91;5019284;28;20425;-85
2023/05/03 00:06:48;;;;;;;15.60;4.00;;;;;;;41.50;35.63;101068.00;5001325;28;20465;-87
2023/05/03 00:09:14;;;;;;;14.70;3.50;;;;;;;41.51;35.84;101069.59;4999339;28;20456;-86
2023/05/03 00:11:41;;;;;;;14.83;6.03;;;;;;;41.52;36.39;101066.53;5015570;28;20983;-86
2023/05/03 00:14:07;;;;;;;17.87;6.00;;;;;;;41.23;36.17;101069.16;5001815;28;20432;-84
2023/05/03 00:16:34;;;;;;;11.70;2.97;;;;;;;41.44;36.26;101075.53;5004034;28;21335;-88
2023/05/03 00:19:06;;;;;;;11.00;3.70;;;;;;;41.48;36.08;101054.69;5018773;28;20482;-88
2023/05/03 00:21:32;;;;;;;13.90;3.93;;;;;;;41.40;35.99;101038.41;5000046;28;20460;-84
2023/05/03 00:23:58;;;;;;;8.53;2.67;;;;;;;41.37;36.62;101049.94;4999204;28;20851;-85
2023/05/03 00:26:25;;;;;;;21.97;5.37;;;;;;;41.38;36.88;101055.06;4996818;28;20903;-85
2023/05/03 00:28:51;;;;;;;22.90;5.23;;;;;;;41.38;37.40;101035.22;4999307;28;20451;-86
2023/05/03 00:31:20;;;;;;;16.90;4.43;;;;;;;41.57;36.82;101039.13;5014335;28;20460;-82
2023/05/03 00:33:47;;;;;;;20.20;5.60;;;;;;;41.49;36.45;101023.59;5014204;28;20420;-85
2023/05/03 00:36:14;;;;;;;16.80;4.10;;;;;;;41.22;36.86;101007.69;4997705;28;20424;-87
2023/05/03 00:38:41;;;;;;;12.47;5.60;;;;;;;41.38;36.99;101021.59;5005758;28;20424;-87
2023/05/03 00:41:11;;;;;;;19.50;4.83;;;;;;;41.43;36.84;101026.84;5016500;28;20428;-84
2023/05/03 00:43:44;;;;;;;16.53;4.70;;;;;;;41.40;36.65;101041.13;5019309;28;20412;-87
2023/05/03 00:46:10;;;;;;;13.60;3.47;;;;;;;41.32;36.45;101037.28;5015850;28;20507;-85
2023/05/03 00:48:36;;;;;;;10.17;3.40;;;;;;;41.25;36.53;101040.50;5015360;28;20420;-85
2023/05/03 00:51:04;;;;;;;12.97;3.40;;;;;;;41.28;36.21;101039.84;5015204;28;20864;-86
2023/05/03 00:53:31;;;;;;;12.83;5.43;;;;;;;41.24;36.42;101063.38;5016673;28;20423;-86
2023/05/03 00:56:00;;;;;;;8.70;4.37;;;;;;;41.16;36.39;101034.28;5015913;28;20451;-85
2023/05/03 00:58:26;;;;;;;10.23;3.77;;;;;;;41.41;36.70;101059.06;5015278;28;20440;-85
2023/05/03 01:00:52;;;;;;;14.20;4.60;;;;;;;41.37;36.75;101052.66;5015182;28;20488;-84
2023/05/03 01:03:18;;;;;;;17.20;3.80;;;;;;;41.44;37.04;101059.22;5013494;28;20452;-86
2023/05/03 01:05:44;;;;;;;15.60;3.43;;;;;;;41.48;37.09;101064.78;5013177;28;20461;-85
2023/05/03 01:08:22;;;;;;;15.40;3.80;;;;;;;41.37;37.24;101060.81;5012879;28;20181;-85
2023/05/03 01:11:07;;;;;;;15.90;3.43;;;;;;;41.38;36.67;101044.19;5013280;28;20617;-86
2023/05/03 01:13:42;;;;;;;10.60;3.30;;;;;;;41.56;36.08;101047.63;4993566;28;20843;-85
2023/05/03 01:16:53;;;;;;;10.67;3.90;;;;;;;41.55;36.27;101052.25;4995127;28;20445;-84
2023/05/03 01:19:32;;;;;;;15.50;4.43;;;;;;;41.21;36.46;101049.66;4993732;28;20424;-85
2023/05/03 01:22:28;;;;;;;9.33;2.93;;;;;;;41.42;36.16;101041.59;5019067;28;20428;-85
2023/05/03 01:25:12;;;;;;;18.30;5.20;;;;;;;41.55;36.17;101037.84;5008453;28;20428;-85
2023/05/03 01:27:39;;;;;;;10.50;3.80;;;;;;;41.22;36.59;101046.59;5012460;28;21023;-85
2023/05/03 01:30:07;;;;;;;9.60;4.07;;;;;;;41.38;36.76;101035.22;5007840;28;20512;-85
2023/05/03 01:32:55;;;;;;;15.03;3.17;;;;;;;41.28;36.83;101034.41;5006750;28;20426;-85
2023/05/03 01:35:43;;;;;;;20.10;3.93;;;;;;;41.40;36.09;101032.97;5012541;28;20507;-85
2023/05/03 01:38:10;;;;;;;16.47;3.87;;;;;;;41.50;36.14;101036.13;5012712;28;20436;-84
2023/05/03 01:40:42;;;;;;;14.03;3.63;;;;;;;41.32;36.95;101034.56;5012531;28;20421;-84
2023/05/03 01:43:15;;;;;;;8.80;2.17;;;;;;;41.16;37.19;101031.56;5012579;28;20436;-85
2023/05/03 01:45:45;;;;;;;7.77;3.43;;;;;;;41.25;36.84;101032.34;5012996;28;20534;-83
2023/05/03 01:48:17;;;;;;;11.43;3.47;;;;;;;41.27;37.05;101010.25;5012732;28;20515;-85
2023/05/03 01:50:44;;;;;;;8.47;3.13;;;;;;;41.34;36.94;101022.25;5012226;28;20487;-85
2023/05/03 01:53:10;;;;;;;9.13;3.40;;;;;;;41.21;37.22;101016.97;5012334;28;20421;-85
2023/05/03 01:55:37;;;;;;;12.93;3.53;;;;;;;41.21;37.10;101006.88;5012221;28;20420;-84
2023/05/03 01:58:03;;;;;;;12.53;3.23;;;;;;;41.21;36.95;100997.94;5011999;28;20490;-85
2023/05/03 02:00:30;;;;;;;24.20;3.97;;;;;;;41.00;37.36;100987.72;5013785;28;20928;-85
2023/05/03 02:02:57;;;;;;;14.40;4.30;;;;;;;41.28;36.93;100987.34;5011849;28;20424;-87
2023/05/03 02:05:23;;;;;;;21.73;5.43;;;;;;;41.27;36.81;100981.09;5012141;28;20992;-86
2023/05/03 02:07:49;;;;;;;10.60;4.33;;;;;;;41.27;37.00;100986.53;5012513;28;20994;-85
2023/05/03 02:10:15;;;;;;;14.93;3.90;;;;;;;41.21;36.75;100984.31;5012257;28;20439;-86
2023/05/03 02:12:42;;;;;;;21.00;7.30;;;;;;;41.34;36.97;100986.84;5013131;28;20455;-85
2023/05/03 02:15:08;;;;;;;14.90;4.53;;;;;;;41.44;36.66;100984.91;5011423;28;20447;-85
2023/05/03 02:17:34;;;;;;;13.47;3.83;;;;;;;41.23;36.76;100966.53;5012302;28;20427;-85
2023/05/03 02:20:00;;;;;;;12.57;3.83;;;;;;;41.24;36.93;100957.22;5012223;28;20424;-86
2023/05/03 02:22:26;;;;;;;17.27;4.37;;;;;;;41.32;36.75;100964.59;5012449;28;20177;-85
2023/05/03 02:24:52;;;;;;;18.60;4.30;;;;;;;41.40;37.02;100967.63;5011943;28;20417;-85
2023/05/03 02:27:18;;;;;;;11.40;3.93;;;;;;;41.47;36.65;100970.63;5011824;28;20471;-85
2023/05/03 02:29:44;;;;;;;17.53;5.37;;;;;;;41.46;36.54;100977.19;5012245;28;20424;-84
2023/05/03 02:32:10;;;;;;;12.43;5.80;;;;;;;41.41;36.76;100974.66;5012060;28;20189;-85
2023/05/03 02:35:09;;;;;;;9.27;3.67;;;;;;;41.41;36.99;100991.00;5012025;28;20181;-85
2023/05/03 02:37:35;;;;;;;13.37;4.03;;;;;;;41.54;36.44;100979.06;5011920;28;20405;-83
2023/05/03 02:40:01;;;;;;;15.50;5.67;;;;;;;41.45;36.64;100981.03;5011890;28;20420;-85
2023/05/03 02:42:27;;;;;;;15.60;4.40;;;;;;;41.51;36.55;100985.97;5013012;28;20424;-85
2023/05/03 02:44:53;;;;;;;13.43;6.10;;;;;;;41.58;36.66;100991.69;5011688;28;20567;-86
2023/05/03 02:47:19;;;;;;;17.20;6.10;;;;;;;41.45;36.68;100990.00;5012146;28;20205;-85
2023/05/03 02:49:44;;;;;;;18.07;4.80;;;;;;;41.52;36.21;100992.22;5011480;28;20185;-84
2023/05/03 02:52:12;;;;;;;15.57;5.47;;;;;;;41.54;36.93;100992.69;5011737;28;20912;-85
2023/05/03 02:54:41;;;;;;;11.87;3.97;;;;;;;41.47;36.90;100993.19;5013005;28;20412;-84
2023/05/03 02:57:15;;;;;;;14.07;5.63;;;;;;;41.43;36.39;100994.16;5012249;28;20468;-85
2023/05/03 02:59:44;;;;;;;16.40;4.77;;;;;;;41.51;36.45;100991.41;5012948;28;20432;-85
2023/05/03 03:02:10;;;;;;;14.70;6.13;;;;;;;41.59;36.27;100992.50;5008445;28;20938;-85
2023/05/03 03:04:36;;;;;;;14.43;3.70;;;;;;;41.68;36.44;101000.59;4991851;28;20520;-85
2023/05/03 03:07:02;;;;;;;15.27;5.20;;;;;;;41.65;36.89;100993.09;4992016;28;20844;-84
2023/05/03 03:09:28;;;;;;;27.83;7.83;;;;;;;41.66;36.56;100995.50;4991461;28;20440;-85
2023/05/03 03:11:54;;;;;;;13.33;5.20;;;;;;;41.64;36.69;100996.97;4991826;28;20213;-85
2023/05/03 03:14:22;;;;;;;11.90;3.90;;;;;;;41.53;36.00;101001.97;4992917;28;20182;-84
2023/05/03 03:16:58;;;;;;;15.13;4.03;;;;;;;41.54;35.92;101009.00;4979729;28;20588;-85
2023/05/03 03:19:47;;;;;;;28.13;6.40;;;;;;;41.53;35.90;101010.16;4996912;28;20413;-84
2023/05/03 03:22:19;;;;;;;16.03;5.37;;;;;;;41.63;35.68;101023.41;4996063;28;20475;-85
2023/05/03 03:24:51;;;;;;;14.13;5.20;;;;;;;41.63;35.56;101028.06;4995535;28;20421;-84
2023/05/03 03:27:20;;;;;;;16.43;5.87;;;;;;;41.65;35.78;101023.06;4995932;28;20481;-83
2023/05/03 03:29:51;;;;;;;17.57;4.70;;;;;;;41.52;35.82;101003.09;4996188;28;20956;-85
2023/05/03 03:32:19;;;;;;;14.80;3.73;;;;;;;41.49;36.28;100999.09;4995491;28;20782;-85
2023/05/03 03:34:45;;;;;;;17.97;4.80;;;;;;;41.64;36.25;101019.56;4995393;28;20429;-85
2023/05/03 03:37:14;;;;;;;18.13;4.33;;;;;;;41.64;36.42;101038.63;4994474;28;20801;-85
2023/05/03 03:39:41;;;;;;;15.10;4.90;;;;;;;41.65;36.71;101048.38;5012854;28;20429;-84
2023/05/03 03:42:22;;;;;;;23.97;6.53;;;;;;;41.61;36.81;101061.84;5015978;28;20496;-85
2023/05/03 03:44:48;;;;;;;11.17;4.80;;;;;;;41.63;36.81;101055.28;5014749;28;20459;-85
2023/05/03 03:47:14;;;;;;;20.87;4.80;;;;;;;41.59;36.24;101061.38;5014288;28;20484;-85
2023/05/03 03:49:40;;;;;;;10.90;3.97;;;;;;;41.53;36.56;101051.78;5014738;28;20428;-85
2023/05/03 03:52:06;;;;;;;19.50;5.13;;;;;;;41.62;36.90;101081.72;5013748;28;20480;-85
2023/05/03 03:54:34;;;;;;;12.47;4.00;;;;;;;41.67;36.73;101072.56;4998222;28;20765;-85
2023/05/03 03:57:03;;;;;;;12.10;6.37;;;;;;;41.67;36.72;101081.53;5014477;28;21007;-87
2023/05/03 03:59:30;;;;;;;10.30;4.17;;;;;;;41.69;36.82;101086.66;4998858;28;20429;-86
2023/05/03 04:01:56;;;;;;;11.47;3.90;;;;;;;41.72;36.66;101084.06;5014608;28;20861;-85
2023/05/03 04:04:22;;;;;;;16.27;5.43;;;;;;;41.66;36.61;101082.66;4998123;28;20451;-85
2023/05/03 04:06:48;;;;;;;15.00;5.57;;;;;;;41.63;36.46;101077.88;5014285;28;20464;-85
2023/05/03 04:09:16;;;;;;;12.73;3.90;;;;;;;41.62;36.58;101081.72;4997833;28;20812;-85
2023/05/03 04:11:42;;;;;;;15.90;4.20;;;;;;;41.57;36.17;101073.75;5014449;28;20522;-84
2023/05/03 04:14:09;;;;;;;17.70;3.70;;;;;;;41.68;36.27;101096.75;4981437;28;20497;-86
2023/05/03 04:16:35;;;;;;;10.27;4.47;;;;;;;41.73;36.36;101096.56;4997955;28;20452;-85
2023/05/03 04:19:01;;;;;;;19.90;3.37;;;;;;;41.69;36.12;101103.81;5014248;28;20436;-85
2023/05/03 04:21:28;;;;;;;12.40;4.97;;;;;;;41.47;35.97;101112.22;5015434;28;20421;-87
2023/05/03 04:23:54;;;;;;;19.13;6.77;;;;;;;41.16;36.50;101096.09;5014094;28;20495;-86
2023/05/03 04:26:31;;;;;;;14.83;6.30;;;;;;;41.15;36.65;101102.66;5014548;28;20460;-86
2023/05/03 04:29:11;;;;;;;10.73;5.90;;;;;;;40.94;36.73;101105.22;4999470;28;20504;-84
2023/05/03 04:31:40;;;;;;;11.50;6.00;;;;;;;40.31;37.70;101092.97;4993901;28;20433;-85
2023/05/03 04:34:51;;;;;;;14.43;6.90;;;;;;;39.96;37.97;101107.28;4995267;28;20443;-86
2023/05/03 04:37:29;;;;;;;10.63;5.97;;;;;;;39.92;37.59;101119.88;5007758;28;20420;-85
2023/05/03 04:39:56;;;;;;;12.03;5.20;;;;;;;40.25;36.84;101116.78;5014300;28;20432;-87
2023/05/03 04:42:29;;;;;;;15.10;7.87;;;;;;;40.26;36.86;101119.19;5014863;28;20439;-88
2023/05/03 04:44:58;;;;;;;12.23;5.17;;;;;;;40.39;36.29;101133.78;5013626;28;20433;-86
2023/05/03 04:47:25;;;;;;;12.87;6.20;;;;;;;40.41;36.58;101138.91;4996412;28;20573;-86
2023/05/03 04:49:55;;;;;;;14.27;8.20;;;;;;;40.24;36.27;101148.59;5013360;28;20515;-84
2023/05/03 04:52:28;;;;;;;13.00;7.00;;;;;;;40.14;36.25;101137.22;5009025;28;20476;-85
2023/05/03 04:55:04;;;;;;;20.20;5.80;;;;;;;39.95;36.25;101132.81;5013776;28;20897;-88
2023/05/03 04:57:37;;;;;;;15.47;6.50;;;;;;;40.02;36.12;101141.34;5013072;28;20474;-85
2023/05/03 05:00:10;;;;;;;12.83;6.70;;;;;;;40.08;36.52;101161.00;5014966;28;20490;-85
2023/05/03 05:02:42;;;;;;;16.30;8.30;;;;;;;40.00;36.32;101151.69;5012882;28;20428;-83
2023/05/03 05:05:29;;;;;;;15.90;7.83;;;;;;;40.17;35.68;101155.63;5014760;28;20460;-86
2023/05/03 05:07:58;;;;;;;12.50;5.83;;;;;;;39.96;35.86;101142.59;5008901;28;20482;-86
2023/05/03 05:10:38;;;;;;;20.10;6.97;;;;;;;40.00;35.99;101168.00;5012075;28;20802;-87
2023/05/03 05:13:30;;;;;;;19.40;7.73;;;;;;;39.93;35.71;101170.38;5014631;28;20416;-88
2023/05/03 05:16:08;;;;;;;21.73;6.70;;;;;;;39.95;35.88;101180.91;5010238;28;20436;-86
2023/05/03 05:18:37;;;;;;;12.23;6.07;;;;;;;39.88;36.35;101177.84;5012155;28;20432;-86
2023/05/03 05:21:03;;;;;;;27.20;11.40;;;;;;;39.79;35.99;101174.31;5012023;28;20836;-86
2023/05/03 05:23:31;;;;;;;24.60;13.37;;;;;;;39.84;36.00;101164.09;5013470;28;20424;-85
2023/05/03 05:26:03;;;;;;;16.40;9.03;;;;;;;39.83;35.80;101175.25;5012668;28;20470;-85
2023/05/03 05:28:36;;;;;;;18.30;6.57;;;;;;;39.80;35.96;101181.31;5012896;28;20421;-85
2023/05/03 05:31:04;;;;;;;14.87;7.53;;;;;;;39.95;35.99;101183.63;5012505;28;20851;-84
2023/05/03 05:33:30;;;;;;;15.13;5.87;;;;;;;39.80;35.76;101165.03;5013079;28;20517;-84
2023/05/03 05:35:56;;;;;;;12.53;5.80;;;;;;;39.78;35.39;101161.81;5012284;28;20499;-85
2023/05/03 05:38:22;;;;;;;29.50;7.60;;;;;;;39.93;35.43;101167.66;5012148;28;20511;-85
2023/05/03 05:40:51;;;;;;;12.83;6.60;;;;;;;39.86;35.39;101148.28;5013333;28;20428;-85
2023/05/03 05:43:17;;;;;;;33.67;10.00;;;;;;;39.82;35.08;101149.22;5012564;28;20444;-85
2023/05/03 05:46:10;;;;;;;14.63;7.07;;;;;;;39.86;35.29;101177.38;5012659;28;20491;-84
2023/05/03 05:48:46;;;;;;;14.67;6.80;;;;;;;39.65;35.67;101188.75;5013817;28;20428;-86
2023/05/03 05:51:13;;;;;;;17.63;7.47;;;;;;;39.52;35.57;101178.72;5011299;28;20476;-86
2023/05/03 05:57:07;;;;;;;18.17;7.97;;;;;;;38.95;36.95;101181.94;5013843;28;20909;-88
2023/05/03 05:59:38;;;;;;;19.40;7.80;;;;;;;39.34;36.17;101174.28;5012232;28;20437;-85
2023/05/03 06:02:09;;;;;;;36.90;8.70;;;;;;;39.28;36.17;101203.47;5014021;28;20450;-86
2023/05/03 06:04:35;;;;;;;16.20;6.50;;;;;;;39.11;36.40;101193.25;5012927;28;20493;-84
2023/05/03 06:07:23;;;;;;;17.23;6.33;;;;;;;39.04;36.70;101213.75;5012606;28;20464;-86
2023/05/03 06:09:52;;;;;;;16.97;7.43;;;;;;;38.22;38.02;101212.66;5016518;28;20431;-87
2023/05/03 06:12:25;;;;;;;16.50;5.27;;;;;;;38.16;37.84;101228.22;5026904;28;20451;-84
2023/05/03 06:15:10;;;;;;;16.60;6.57;;;;;;;38.59;37.23;101236.09;5026629;28;20431;-86
2023/05/03 06:17:47;;;;;;;12.33;5.10;;;;;;;38.59;37.19;101246.94;5016196;28;20423;-85
2023/05/03 06:20:17;;;;;;;17.03;6.43;;;;;;;38.15;37.30;101212.28;5017538;28;20528;-86
2023/05/03 06:22:45;;;;;;;16.50;6.63;;;;;;;38.20;37.30;101233.06;5016305;28;20818;-84
2023/05/03 06:25:18;;;;;;;21.07;6.37;;;;;;;38.18;37.62;101266.66;4998356;28;20925;-86
2023/05/03 06:27:49;;;;;;;17.00;6.23;;;;;;;38.46;37.09;101257.78;5020596;28;20432;-85
2023/05/03 06:30:17;;;;;;;12.50;5.60;;;;;;;38.94;36.68;101247.34;4999294;28;20575;-84
2023/05/03 06:32:52;;;;;;;13.90;8.37;;;;;;;39.00;36.41;101234.50;5007666;28;20446;-88
2023/05/03 06:35:21;;;;;;;21.10;7.53;;;;;;;39.18;35.40;101226.22;4996893;28;20405;-87
2023/05/03 06:37:53;;;;;;;18.90;6.67;;;;;;;39.41;35.75;101245.22;5008782;28;21024;-85
2023/05/03 06:40:24;;;;;;;17.47;6.07;;;;;;;39.25;35.36;101242.09;5007173;28;20454;-85
2023/05/03 06:42:53;;;;;;;17.13;6.20;;;;;;;39.28;34.81;101227.09;4992092;28;20472;-84
2023/05/03 06:45:30;;;;;;;17.53;6.33;;;;;;;39.36;35.22;101235.31;5013096;28;20516;-85
2023/05/03 06:47:58;;;;;;;31.00;7.90;;;;;;;39.57;34.73;101230.19;5003978;28;20514;-84
2023/05/03 06:50:44;;;;;;;18.27;8.20;;;;;;;39.49;35.36;101233.66;5005320;28;20955;-86
2023/05/03 06:53:15;;;;;;;12.00;6.17;;;;;;;39.19;35.09;101249.53;5009097;28;20922;-86
2023/05/03 06:55:45;;;;;;;18.33;7.47;;;;;;;39.21;35.35;101250.03;5032154;22;20513;-85
2023/05/03 06:58:20;;;;;;;24.83;9.03;;;;;;;39.63;34.65;101264.28;5029998;28;20431;-85
2023/05/03 07:00:46;;;;;;;22.87;9.93;;;;;;;39.53;35.53;101269.13;5026565;28;20514;-85
2023/05/03 07:03:13;;;;;;;16.43;8.60;;;;;;;39.42;35.66;101261.22;5025890;28;20424;-84
2023/05/03 07:05:46;;;;;;;16.60;8.83;;;;;;;39.57;35.47;101279.06;5015227;28;20470;-84
2023/05/03 07:08:25;;;;;;;14.50;8.07;;;;;;;39.39;36.03;101285.47;5006075;28;20440;-84
2023/05/03 07:10:53;;;;;;;20.40;10.10;;;;;;;39.16;36.38;101295.47;5026405;28;20428;-85
2023/05/03 07:13:21;;;;;;;18.73;8.50;;;;;;;39.04;36.55;101284.28;5024955;28;20419;-85
2023/05/03 07:15:51;;;;;;;17.83;9.20;;;;;;;39.20;36.03;101291.03;5022255;28;20513;-85
2023/05/03 07:18:22;;;;;;;19.40;8.97;;;;;;;39.27;36.04;101312.31;5027873;28;20434;-85
2023/05/03 07:21:12;;;;;;;19.30;8.93;;;;;;;39.37;36.40;101310.19;5003448;28;20946;-85
2023/05/03 07:24:02;;;;;;;17.17;10.30;;;;;;;39.90;35.11;101314.97;5020058;28;20435;-85
2023/05/03 07:26:28;;;;;;;22.43;10.07;;;;;;;39.86;34.78;101326.75;5018053;28;21009;-84
2023/05/03 07:28:54;;;;;;;23.77;9.93;;;;;;;39.55;35.02;101308.44;5017211;28;20460;-83
2023/05/03 07:31:23;;;;;;;19.23;9.43;;;;;;;39.45;35.00;101306.75;5014878;28;20264;-85
2023/05/03 07:33:49;;;;;;;19.33;8.17;;;;;;;39.74;34.65;101300.16;5014589;28;20178;-82
2023/05/03 07:36:15;;;;;;;15.13;8.47;;;;;;;39.16;35.61;101295.47;5014671;28;20412;-84
2023/05/03 07:38:41;;;;;;;18.03;8.27;;;;;;;39.32;35.59;101304.88;5028722;28;20776;-82
2023/05/03 07:41:08;;;;;;;17.43;6.73;;;;;;;39.22;35.73;101314.03;5033287;28;20182;-82
2023/05/03 07:43:34;;;;;;;18.47;7.33;;;;;;;39.38;35.34;101305.56;5030797;28;20235;-83
2023/05/03 07:46:00;;;;;;;15.80;7.60;;;;;;;39.74;35.46;101324.59;5017249;28;20451;-85
2023/05/03 07:48:27;;;;;;;22.13;8.33;;;;;;;39.59;35.30;101319.47;5031265;28;20471;-87
2023/05/03 07:50:53;;;;;;;24.10;8.07;;;;;;;39.68;34.92;101314.97;5033690;28;20420;-83
2023/05/03 07:53:19;;;;;;;20.27;7.47;;;;;;;39.57;35.46;101319.00;5017997;28;20423;-83
2023/05/03 07:55:45;;;;;;;19.70;10.70;;;;;;;39.88;34.87;101325.31;5033102;28;20478;-85
2023/05/03 07:58:11;;;;;;;29.87;11.60;;;;;;;40.05;34.34;101330.13;5033321;28;20420;-80
2023/05/03 08:00:37;;;;;;;22.03;11.60;;;;;;;40.03;34.87;101330.41;5031791;28;20442;-78
2023/05/03 08:03:04;;;;;;;31.10;11.77;;;;;;;40.16;34.84;101304.28;5033549;28;20462;-81
2023/05/03 08:05:30;;;;;;;27.43;11.60;;;;;;;40.52;34.82;101328.66;5033579;28;20415;-80
2023/05/03 08:07:56;;;;;;;27.93;13.60;;;;;;;40.59;34.04;101332.84;5030535;28;20928;-81
2023/05/03 08:10:22;;;;;;;28.17;14.57;;;;;;;40.55;33.99;101319.84;5032575;28;20431;-82
2023/05/03 08:12:48;;;;;;;28.77;15.07;;;;;;;40.33;34.72;101319.06;5030176;28;20430;-82
2023/05/03 08:15:14;;;;;;;41.63;14.90;;;;;;;40.66;34.23;101328.53;5032318;28;20439;-79
2023/05/03 08:17:42;;;;;;;36.70;14.40;;;;;;;40.72;34.22;101337.38;5031935;28;20988;-81
2023/05/03 08:20:09;;;;;;;30.67;17.70;;;;;;;40.55;34.01;101338.88;5032391;28;20428;-82
2023/05/03 08:22:40;;;;;;;32.77;15.67;;;;;;;40.08;35.38;101318.59;5031744;28;20423;-81
2023/05/03 08:25:06;;;;;;;32.77;14.97;;;;;;;40.57;34.60;101341.28;5032747;28;20830;-82
2023/05/03 08:27:33;;;;;;;31.53;14.30;;;;;;;40.51;34.32;101331.66;5028099;28;20444;-83
2023/05/03 08:30:00;;;;;;;36.23;16.07;;;;;;;40.63;34.17;101329.16;5013431;28;20417;-82
2023/05/03 08:32:27;;;;;;;31.57;16.07;;;;;;;40.79;34.45;101321.38;5031737;28;20924;-81
2023/05/03 08:34:54;;;;;;;29.83;13.17;;;;;;;40.74;34.41;101330.47;5034718;28;20430;-82
2023/05/03 08:37:20;;;;;;;29.80;13.30;;;;;;;40.89;34.36;101329.25;5028806;28;20408;-81
2023/05/03 08:39:46;;;;;;;37.33;14.83;;;;;;;41.04;34.07;101328.03;5029932;28;20954;-82
2023/05/03 08:42:13;;;;;;;32.23;13.10;;;;;;;41.17;34.50;101323.56;5032394;28;20439;-82
2023/05/03 08:44:46;;;;;;;23.53;11.57;;;;;;;41.25;34.17;101320.88;5030367;28;20416;-80
2023/05/03 08:47:16;;;;;;;33.13;11.87;;;;;;;41.30;34.23;101309.81;5030621;28;20447;-80
2023/05/03 08:49:43;;;;;;;19.03;9.97;;;;;;;41.36;34.58;101294.16;5032213;28;20408;-82
2023/05/03 08:52:11;;;;;;;20.47;9.90;;;;;;;41.53;34.56;101315.94;5031882;28;20958;-80
2023/05/03 08:54:37;;;;;;;19.33;9.60;;;;;;;41.58;34.43;101318.50;5027900;28;20423;-80
2023/05/03 08:57:07;;;;;;;20.80;9.57;;;;;;;41.57;34.64;101307.94;5032053;28;20459;-80
2023/05/03 08:59:32;;;;;;;19.40;9.40;;;;;;;41.60;34.90;101302.66;5029435;28;20404;-80
2023/05/03 09:01:59;;;;;;;20.53;10.40;;;;;;;41.76;33.97;101305.72;5032153;28;20473;-81
2023/05/03 09:04:33;;;;;;;22.57;11.00;;;;;;;41.72;34.26;101304.72;5030669;28;20173;-80
2023/05/03 09:07:14;;;;;;;27.97;9.53;;;;;;;41.70;34.44;101301.53;5031983;28;20450;-79
2023/05/03 09:09:40;;;;;;;13.03;6.30;;;;;;;41.74;34.51;101307.97;5031063;28;20478;-80
2023/05/03 09:12:06;;;;;;;19.73;7.37;;;;;;;41.77;34.39;101301.06;5031352;28;20515;-81
2023/05/03 09:14:42;;;;;;;18.23;8.10;;;;;;;41.76;34.78;101297.53;5031447;28;20472;-81
2023/05/03 09:17:16;;;;;;;17.30;8.70;;;;;;;41.78;34.40;101291.75;5030123;28;20798;-80
2023/05/03 09:19:53;;;;;;;16.10;8.50;;;;;;;41.81;34.32;101291.13;5029406;28;20411;-80
2023/05/03 09:22:23;;;;;;;20.73;8.83;;;;;;;41.86;34.43;101294.47;5031007;28;20534;-80
2023/05/03 09:25:02;;;;;;;20.60;10.20;;;;;;;41.80;34.54;101295.75;5010467;28;20415;-80
2023/05/03 09:27:29;;;;;;;29.47;11.30;;;;;;;41.88;34.27;101296.09;5031544;28;20486;-81
2023/05/03 09:29:55;;;;;;;23.93;9.27;;;;;;;41.91;34.14;101295.44;5031478;28;20951;-81
2023/05/03 09:32:21;;;;;;;21.70;10.60;;;;;;;41.86;34.27;101278.13;5031041;28;20418;-80
2023/05/03 09:34:47;;;;;;;24.27;9.60;;;;;;;41.90;34.14;101294.63;5031604;28;20412;-79
2023/05/03 09:37:14;;;;;;;20.97;8.73;;;;;;;41.90;34.57;101291.09;5030808;28;20419;-79
2023/05/03 09:39:41;;;;;;;19.23;9.07;;;;;;;41.97;34.78;101284.03;5012245;28;20435;-79
2023/05/03 09:42:25;;;;;;;16.30;7.90;;;;;;;41.93;34.63;101280.38;5012101;28;20972;-79
2023/05/03 09:44:51;;;;;;;20.73;7.93;;;;;;;42.00;34.70;101268.97;5012290;28;21031;-79
2023/05/03 09:47:20;;;;;;;28.87;8.20;;;;;;;42.05;34.54;101268.75;5012901;28;20554;-79
2023/05/03 09:49:46;;;;;;;25.60;7.30;;;;;;;42.09;34.84;101259.63;5031412;28;20601;-80
2023/05/03 09:52:12;;;;;;;14.67;7.90;;;;;;;42.06;34.26;101263.00;5030828;28;20474;-80
2023/05/03 09:54:38;;;;;;;15.13;8.17;;;;;;;42.11;35.01;101271.03;5031207;28;20419;-80
2023/05/03 09:57:07;;;;;;;19.97;7.37;;;;;;;42.11;34.91;101268.28;5026812;28;20463;-80
2023/05/03 09:59:34;;;;;;;17.40;7.40;;;;;;;42.01;34.79;101257.72;5012622;28;20456;-80
2023/05/03 10:02:06;;;;;;;18.40;9.50;;;;;;;42.13;35.06;101281.59;5011709;28;20448;-82
2023/05/03 10:04:46;;;;;;;12.07;6.93;;;;;;;42.10;35.02;101276.78;5013059;28;20392;-80
2023/05/03 10:07:16;;;;;;;19.53;7.70;;;;;;;42.06;34.93;101273.13;5011505;28;20460;-82
2023/05/03 10:09:44;;;;;;;16.10;7.10;;;;;;;42.10;35.01;101274.03;5030681;28;20522;-80
2023/05/03 10:12:12;;;;;;;13.97;7.10;;;;;;;42.05;35.30;101263.31;5031071;28;20506;-80
2023/05/03 10:14:43;;;;;;;16.80;7.17;;;;;;;42.11;35.12;101262.84;5030714;28;20444;-80
2023/05/03 10:17:13;;;;;;;14.10;7.07;;;;;;;42.16;35.26;101253.69;5030257;28;20424;-80
2023/05/03 10:19:55;;;;;;;14.53;6.93;;;;;;;42.11;35.05;101251.13;5030984;28;20518;-82
2023/05/03 10:22:21;;;;;;;14.97;6.93;;;;;;;42.17;34.79;101247.09;5030057;28;20424;-80
2023/05/03 10:24:56;;;;;;;13.20;8.10;;;;;;;42.10;35.13;101246.78;5030549;28;20447;-82
2023/05/03 10:27:23;;;;;;;19.43;10.90;;;;;;;42.17;35.16;101233.47;5014067;28;20506;-80
2023/05/03 10:29:51;;;;;;;18.77;11.90;;;;;;;42.20;34.93;101230.13;5016267;28;20785;-79
2023/05/03 10:32:41;;;;;;;19.53;10.80;;;;;;;42.10;35.05;101228.50;5031918;28;20439;-82
2023/05/03 10:35:16;;;;;;;18.00;10.10;;;;;;;42.10;34.98;101220.34;5030834;28;20431;-85
2023/05/03 10:37:44;;;;;;;21.50;9.53;;;;;;;42.16;34.82;101229.16;5030249;28;20405;-85
2023/05/03 10:40:12;;;;;;;18.93;7.80;;;;;;;42.18;34.92;101239.75;5016716;28;20455;-85
2023/05/03 10:42:42;;;;;;;19.47;8.03;;;;;;;42.18;35.14;101235.09;5031424;28;20521;-80
2023/05/03 10:45:19;;;;;;;22.47;8.40;;;;;;;42.19;35.31;101236.69;5029272;28;20507;-80
2023/05/03 10:48:10;;;;;;;15.77;7.70;;;;;;;42.14;35.39;101236.84;5027006;28;20447;-80
2023/05/03 10:50:40;;;;;;;22.83;7.90;;;;;;;42.24;35.01;101241.97;5043056;28;20423;-81
2023/05/03 10:53:08;;;;;;;20.63;8.10;;;;;;;42.26;35.23;101236.19;5029585;28;20484;-84
2023/05/03 10:55:34;;;;;;;13.80;6.23;;;;;;;42.34;35.16;101229.88;5027768;28;20467;-82
2023/05/03 10:58:02;;;;;;;22.70;11.27;;;;;;;42.27;35.30;101230.41;5024058;28;20455;-82
2023/05/03 11:00:40;;;;;;;15.13;6.90;;;;;;;42.16;35.72;101211.97;5011302;28;20443;-83
2023/05/03 11:03:24;;;;;;;18.07;6.97;;;;;;;42.27;35.47;101214.03;5028134;28;20864;-84
2023/05/03 11:05:53;;;;;;;21.00;8.70;;;;;;;42.32;35.28;101208.41;5025753;28;20899;-80
2023/05/03 11:08:21;;;;;;;19.77;6.97;;;;;;;42.33;35.12;101201.03;5017222;28;20827;-80
2023/05/03 11:10:58;;;;;;;15.73;6.43;;;;;;;42.32;35.31;101207.59;5026540;28;20875;-80
2023/05/03 11:13:25;;;;;;;20.83;8.17;;;;;;;42.37;35.41;101210.16;5030150;28;20954;-80
2023/05/03 11:15:55;;;;;;;22.27;8.80;;;;;;;42.39;35.41;101207.88;5029754;28;20518;-81
2023/05/03 11:18:22;;;;;;;26.90;13.03;;;;;;;42.35;35.16;101207.72;5018690;28;20451;-79
2023/05/03 11:20:48;;;;;;;19.47;11.43;;;;;;;42.38;35.37;101206.28;5009360;28;20412;-81
2023/05/03 11:23:15;;;;;;;21.37;8.57;;;;;;;42.35;35.02;101201.47;5008938;28;20424;-80
2023/05/03 11:25:41;;;;;;;17.30;8.70;;;;;;;42.33;35.64;101199.09;5009743;28;20424;-80
2023/05/03 11:28:07;;;;;;;15.77;7.60;;;;;;;42.36;34.98;101193.00;5025419;28;20502;-80
2023/05/03 11:30:35;;;;;;;11.60;7.03;;;;;;;42.42;35.20;101190.06;5028685;28;20507;-81
2023/05/03 11:33:01;;;;;;;16.53;7.47;;;;;;;42.43;35.19;101189.75;5009090;28;20423;-80
2023/05/03 11:35:31;;;;;;;13.93;7.93;;;;;;;42.40;34.69;101180.28;5011153;28;20416;-82